sensor_id;sensor_type;location;lat;lon;timestamp;P1;durP1;ratioP1;P2;durP2;ratioP2
53775;SDS011;44276;49.534;6.378;2023-08-21T00:01:52;4.60;;;2.65;;
53775;SDS011;44276;49.534;6.378;2023-08-21T00:04:22;6.72;;;2.85;;
53775;SDS011;44276;49.534;6.378;2023-08-21T00:06:50;4.63;;;2.35;;
53775;SDS011;44276;49.534;6.378;2023-08-21T00:09:19;4.00;;;2.38;;
53775;SDS011;44276;49.534;6.378;2023-08-21T00:11:48;4.80;;;2.70;;
53775;SDS011;44276;49.534;6.378;2023-08-21T00:14:16;8.40;;;2.88;;
53775;SDS011;44276;49.534;6.378;2023-08-21T00:16:44;10.55;;;3.50;;
53775;SDS011;44276;49.534;6.378;2023-08-21T00:19:13;25.35;;;4.78;;
53775;SDS011;44276;49.534;6.378;2023-08-21T00:21:41;27.58;;;4.38;;
53775;SDS011;44276;49.534;6.378;2023-08-21T00:24:09;21.50;;;4.28;;
53775;SDS011;44276;49.534;6.378;2023-08-21T00:26:37;8.73;;;3.00;;
53775;SDS011;44276;49.534;6.378;2023-08-21T00:29:07;6.13;;;2.42;;
53775;SDS011;44276;49.534;6.378;2023-08-21T00:31:35;7.43;;;2.35;;
53775;SDS011;44276;49.534;6.378;2023-08-21T00:34:03;6.97;;;2.65;;
53775;SDS011;44276;49.534;6.378;2023-08-21T00:36:31;8.48;;;3.55;;
53775;SDS011;44276;49.534;6.378;2023-08-21T00:38:59;5.05;;;2.53;;
53775;SDS011;44276;49.534;6.378;2023-08-21T00:41:28;7.47;;;2.50;;
53775;SDS011;44276;49.534;6.378;2023-08-21T00:43:56;5.28;;;2.85;;
53775;SDS011;44276;49.534;6.378;2023-08-21T00:46:25;5.35;;;2.80;;
53775;SDS011;44276;49.534;6.378;2023-08-21T00:48:54;7.75;;;2.97;;
53775;SDS011;44276;49.534;6.378;2023-08-21T00:51:23;6.45;;;3.33;;
53775;SDS011;44276;49.534;6.378;2023-08-21T00:53:52;6.80;;;2.75;;
53775;SDS011;44276;49.534;6.378;2023-08-21T00:56:20;6.30;;;3.20;;
53775;SDS011;44276;49.534;6.378;2023-08-21T00:58:49;6.25;;;2.42;;
53775;SDS011;44276;49.534;6.378;2023-08-21T01:01:17;5.10;;;2.25;;
53775;SDS011;44276;49.534;6.378;2023-08-21T01:03:50;3.28;;;2.00;;
53775;SDS011;44276;49.534;6.378;2023-08-21T01:06:19;4.43;;;2.03;;
53775;SDS011;44276;49.534;6.378;2023-08-21T01:08:49;2.42;;;1.60;;
53775;SDS011;44276;49.534;6.378;2023-08-21T01:11:31;6.88;;;2.28;;
53775;SDS011;44276;49.534;6.378;2023-08-21T01:14:13;6.13;;;3.25;;
53775;SDS011;44276;49.534;6.378;2023-08-21T01:16:53;5.70;;;2.15;;
53775;SDS011;44276;49.534;6.378;2023-08-21T01:19:31;8.27;;;2.40;;
53775;SDS011;44276;49.534;6.378;2023-08-21T01:22:05;14.80;;;4.57;;
53775;SDS011;44276;49.534;6.378;2023-08-21T01:24:35;11.30;;;3.50;;
53775;SDS011;44276;49.534;6.378;2023-08-21T01:27:04;12.55;;;3.20;;
53775;SDS011;44276;49.534;6.378;2023-08-21T01:29:32;3.33;;;2.47;;
53775;SDS011;44276;49.534;6.378;2023-08-21T01:32:05;8.43;;;3.55;;
53775;SDS011;44276;49.534;6.378;2023-08-21T01:34:41;4.88;;;2.63;;
53775;SDS011;44276;49.534;6.378;2023-08-21T01:37:11;4.20;;;3.05;;
53775;SDS011;44276;49.534;6.378;2023-08-21T01:39:42;6.32;;;2.50;;
53775;SDS011;44276;49.534;6.378;2023-08-21T01:42:10;4.65;;;2.20;;
53775;SDS011;44276;49.534;6.378;2023-08-21T01:44:38;7.55;;;3.00;;
53775;SDS011;44276;49.534;6.378;2023-08-21T01:47:07;5.22;;;3.97;;
53775;SDS011;44276;49.534;6.378;2023-08-21T01:49:35;3.65;;;3.00;;
53775;SDS011;44276;49.534;6.378;2023-08-21T01:52:04;4.57;;;2.97;;
53775;SDS011;44276;49.534;6.378;2023-08-21T01:54:32;6.30;;;3.90;;
53775;SDS011;44276;49.534;6.378;2023-08-21T01:57:02;6.63;;;3.55;;
53775;SDS011;44276;49.534;6.378;2023-08-21T01:59:31;7.50;;;3.55;;
53775;SDS011;44276;49.534;6.378;2023-08-21T02:01:59;6.53;;;3.45;;
53775;SDS011;44276;49.534;6.378;2023-08-21T02:04:27;6.63;;;3.40;;
53775;SDS011;44276;49.534;6.378;2023-08-21T02:06:56;18.15;;;5.05;;
53775;SDS011;44276;49.534;6.378;2023-08-21T02:09:24;5.82;;;3.55;;
53775;SDS011;44276;49.534;6.378;2023-08-21T02:11:52;10.27;;;3.97;;
53775;SDS011;44276;49.534;6.378;2023-08-21T02:14:22;15.23;;;5.03;;
53775;SDS011;44276;49.534;6.378;2023-08-21T02:16:50;7.55;;;3.58;;
53775;SDS011;44276;49.534;6.378;2023-08-21T02:19:18;10.95;;;4.25;;
53775;SDS011;44276;49.534;6.378;2023-08-21T02:21:46;12.95;;;4.47;;
53775;SDS011;44276;49.534;6.378;2023-08-21T02:24:14;14.82;;;3.80;;
53775;SDS011;44276;49.534;6.378;2023-08-21T02:26:43;7.18;;;3.95;;
53775;SDS011;44276;49.534;6.378;2023-08-21T02:29:12;6.35;;;4.05;;
53775;SDS011;44276;49.534;6.378;2023-08-21T02:31:42;5.50;;;3.55;;
53775;SDS011;44276;49.534;6.378;2023-08-21T02:34:10;7.70;;;4.20;;
53775;SDS011;44276;49.534;6.378;2023-08-21T02:36:38;8.90;;;4.15;;
53775;SDS011;44276;49.534;6.378;2023-08-21T02:39:06;9.30;;;4.35;;
53775;SDS011;44276;49.534;6.378;2023-08-21T02:41:34;11.70;;;4.60;;
53775;SDS011;44276;49.534;6.378;2023-08-21T02:44:03;8.05;;;3.83;;
53775;SDS011;44276;49.534;6.378;2023-08-21T02:46:31;5.35;;;3.70;;
53775;SDS011;44276;49.534;6.378;2023-08-21T02:49:02;7.45;;;4.05;;
53775;SDS011;44276;49.534;6.378;2023-08-21T02:51:30;8.05;;;4.80;;
53775;SDS011;44276;49.534;6.378;2023-08-21T02:53:58;6.63;;;4.00;;
53775;SDS011;44276;49.534;6.378;2023-08-21T02:56:26;9.65;;;5.00;;
53775;SDS011;44276;49.534;6.378;2023-08-21T02:58:54;8.77;;;4.68;;
53775;SDS011;44276;49.534;6.378;2023-08-21T03:01:22;9.60;;;4.28;;
53775;SDS011;44276;49.534;6.378;2023-08-21T03:03:51;14.80;;;4.50;;
53775;SDS011;44276;49.534;6.378;2023-08-21T03:06:20;7.82;;;4.32;;
53775;SDS011;44276;49.534;6.378;2023-08-21T03:08:48;10.38;;;4.20;;
53775;SDS011;44276;49.534;6.378;2023-08-21T03:11:17;9.70;;;3.95;;
53775;SDS011;44276;49.534;6.378;2023-08-21T03:13:45;13.32;;;5.15;;
53775;SDS011;44276;49.534;6.378;2023-08-21T03:16:13;9.60;;;4.35;;
53775;SDS011;44276;49.534;6.378;2023-08-21T03:18:53;8.15;;;4.78;;
53775;SDS011;44276;49.534;6.378;2023-08-21T03:21:25;7.32;;;3.95;;
53775;SDS011;44276;49.534;6.378;2023-08-21T03:23:54;12.05;;;3.83;;
53775;SDS011;44276;49.534;6.378;2023-08-21T03:26:26;6.85;;;4.60;;
53775;SDS011;44276;49.534;6.378;2023-08-21T03:28:55;11.38;;;5.70;;
53775;SDS011;44276;49.534;6.378;2023-08-21T03:31:23;11.30;;;4.35;;
53775;SDS011;44276;49.534;6.378;2023-08-21T03:33:51;6.38;;;5.18;;
53775;SDS011;44276;49.534;6.378;2023-08-21T03:36:19;9.38;;;5.28;;
53775;SDS011;44276;49.534;6.378;2023-08-21T03:38:51;11.25;;;5.22;;
53775;SDS011;44276;49.534;6.378;2023-08-21T03:41:19;7.25;;;4.50;;
53775;SDS011;44276;49.534;6.378;2023-08-21T03:43:47;8.85;;;4.35;;
53775;SDS011;44276;49.534;6.378;2023-08-21T03:46:15;11.88;;;4.38;;
53775;SDS011;44276;49.534;6.378;2023-08-21T03:48:44;7.88;;;4.75;;
53775;SDS011;44276;49.534;6.378;2023-08-21T03:51:12;7.18;;;4.40;;
53775;SDS011;44276;49.534;6.378;2023-08-21T03:53:40;20.17;;;4.70;;
53775;SDS011;44276;49.534;6.378;2023-08-21T03:56:10;11.77;;;4.80;;
53775;SDS011;44276;49.534;6.378;2023-08-21T03:58:38;9.18;;;5.20;;
53775;SDS011;44276;49.534;6.378;2023-08-21T04:01:06;10.18;;;5.70;;
53775;SDS011;44276;49.534;6.378;2023-08-21T04:03:35;12.88;;;5.45;;
53775;SDS011;44276;49.534;6.378;2023-08-21T04:06:03;8.45;;;4.75;;
53775;SDS011;44276;49.534;6.378;2023-08-21T04:08:31;8.05;;;4.78;;
53775;SDS011;44276;49.534;6.378;2023-08-21T04:11:01;10.48;;;5.18;;
53775;SDS011;44276;49.534;6.378;2023-08-21T04:13:30;10.48;;;5.10;;
53775;SDS011;44276;49.534;6.378;2023-08-21T04:15:59;7.97;;;5.00;;
53775;SDS011;44276;49.534;6.378;2023-08-21T04:18:27;13.52;;;5.80;;
53775;SDS011;44276;49.534;6.378;2023-08-21T04:21:06;7.65;;;4.97;;
53775;SDS011;44276;49.534;6.378;2023-08-21T04:23:34;12.48;;;5.22;;
53775;SDS011;44276;49.534;6.378;2023-08-21T04:26:03;15.20;;;5.03;;
53775;SDS011;44276;49.534;6.378;2023-08-21T04:28:33;6.00;;;4.40;;
53775;SDS011;44276;49.534;6.378;2023-08-21T04:31:04;13.85;;;5.47;;
53775;SDS011;44276;49.534;6.378;2023-08-21T04:33:32;16.73;;;6.15;;
53775;SDS011;44276;49.534;6.378;2023-08-21T04:36:01;16.77;;;5.95;;
53775;SDS011;44276;49.534;6.378;2023-08-21T04:38:30;12.63;;;5.15;;
53775;SDS011;44276;49.534;6.378;2023-08-21T04:41:05;10.75;;;5.00;;
53775;SDS011;44276;49.534;6.378;2023-08-21T04:43:36;12.88;;;5.13;;
53775;SDS011;44276;49.534;6.378;2023-08-21T04:46:04;8.15;;;4.53;;
53775;SDS011;44276;49.534;6.378;2023-08-21T04:48:33;8.98;;;4.80;;
53775;SDS011;44276;49.534;6.378;2023-08-21T04:51:01;9.73;;;5.70;;
53775;SDS011;44276;49.534;6.378;2023-08-21T04:53:29;6.50;;;4.78;;
53775;SDS011;44276;49.534;6.378;2023-08-21T04:55:58;12.75;;;5.82;;
53775;SDS011;44276;49.534;6.378;2023-08-21T04:58:26;9.27;;;4.80;;
53775;SDS011;44276;49.534;6.378;2023-08-21T05:00:56;13.05;;;5.72;;
53775;SDS011;44276;49.534;6.378;2023-08-21T05:03:26;11.88;;;5.50;;
53775;SDS011;44276;49.534;6.378;2023-08-21T05:05:54;7.22;;;5.45;;
53775;SDS011;44276;49.534;6.378;2023-08-21T05:08:23;8.60;;;4.80;;
53775;SDS011;44276;49.534;6.378;2023-08-21T05:10:55;12.38;;;5.55;;
53775;SDS011;44276;49.534;6.378;2023-08-21T05:13:24;11.68;;;5.28;;
53775;SDS011;44276;49.534;6.378;2023-08-21T05:15:53;18.80;;;5.50;;
53775;SDS011;44276;49.534;6.378;2023-08-21T05:18:24;17.63;;;4.93;;
53775;SDS011;44276;49.534;6.378;2023-08-21T05:20:55;9.25;;;5.38;;
53775;SDS011;44276;49.534;6.378;2023-08-21T05:23:23;17.30;;;5.03;;
53775;SDS011;44276;49.534;6.378;2023-08-21T05:25:52;10.55;;;4.35;;
53775;SDS011;44276;49.534;6.378;2023-08-21T05:28:20;13.88;;;4.28;;
53775;SDS011;44276;49.534;6.378;2023-08-21T05:30:48;9.52;;;3.75;;
53775;SDS011;44276;49.534;6.378;2023-08-21T05:33:18;14.07;;;4.60;;
53775;SDS011;44276;49.534;6.378;2023-08-21T05:35:46;8.48;;;3.25;;
53775;SDS011;44276;49.534;6.378;2023-08-21T05:38:14;6.30;;;2.90;;
53775;SDS011;44276;49.534;6.378;2023-08-21T05:40:42;14.32;;;3.28;;
53775;SDS011;44276;49.534;6.378;2023-08-21T05:43:11;20.50;;;4.35;;
53775;SDS011;44276;49.534;6.378;2023-08-21T05:45:39;8.93;;;2.88;;
53775;SDS011;44276;49.534;6.378;2023-08-21T05:48:07;7.03;;;3.53;;
53775;SDS011;44276;49.534;6.378;2023-08-21T05:50:37;8.10;;;3.58;;
53775;SDS011;44276;49.534;6.378;2023-08-21T05:53:05;10.32;;;3.35;;
53775;SDS011;44276;49.534;6.378;2023-08-21T05:55:33;7.50;;;3.13;;
53775;SDS011;44276;49.534;6.378;2023-08-21T05:58:04;6.30;;;2.20;;
53775;SDS011;44276;49.534;6.378;2023-08-21T06:00:33;15.70;;;3.15;;
53775;SDS011;44276;49.534;6.378;2023-08-21T06:03:01;15.35;;;3.20;;
53775;SDS011;44276;49.534;6.378;2023-08-21T06:05:30;3.90;;;2.35;;
53775;SDS011;44276;49.534;6.378;2023-08-21T06:08:00;5.13;;;2.15;;
53775;SDS011;44276;49.534;6.378;2023-08-21T06:10:28;9.25;;;2.70;;
53775;SDS011;44276;49.534;6.378;2023-08-21T06:12:58;16.35;;;3.22;;
53775;SDS011;44276;49.534;6.378;2023-08-21T06:15:26;12.07;;;2.22;;
53775;SDS011;44276;49.534;6.378;2023-08-21T06:17:54;7.65;;;1.95;;
53775;SDS011;44276;49.534;6.378;2023-08-21T06:20:22;16.42;;;3.15;;
53775;SDS011;44276;49.534;6.378;2023-08-21T06:22:51;2.75;;;1.50;;
53775;SDS011;44276;49.534;6.378;2023-08-21T06:25:21;10.32;;;2.83;;
53775;SDS011;44276;49.534;6.378;2023-08-21T06:27:49;10.43;;;2.45;;
53775;SDS011;44276;49.534;6.378;2023-08-21T06:30:25;7.97;;;1.80;;
53775;SDS011;44276;49.534;6.378;2023-08-21T06:32:53;9.98;;;2.45;;
53775;SDS011;44276;49.534;6.378;2023-08-21T06:35:22;6.18;;;1.55;;
53775;SDS011;44276;49.534;6.378;2023-08-21T06:37:50;9.82;;;3.70;;
53775;SDS011;44276;49.534;6.378;2023-08-21T06:40:18;10.80;;;2.72;;
53775;SDS011;44276;49.534;6.378;2023-08-21T06:42:47;12.68;;;2.97;;
53775;SDS011;44276;49.534;6.378;2023-08-21T06:45:17;9.52;;;2.65;;
53775;SDS011;44276;49.534;6.378;2023-08-21T06:47:45;7.93;;;1.30;;
53775;SDS011;44276;49.534;6.378;2023-08-21T06:50:14;6.50;;;1.83;;
53775;SDS011;44276;49.534;6.378;2023-08-21T06:52:42;7.18;;;2.38;;
53775;SDS011;44276;49.534;6.378;2023-08-21T06:55:11;7.95;;;2.42;;
53775;SDS011;44276;49.534;6.378;2023-08-21T06:57:40;8.57;;;2.35;;
53775;SDS011;44276;49.534;6.378;2023-08-21T07:00:14;4.65;;;1.88;;
53775;SDS011;44276;49.534;6.378;2023-08-21T07:02:43;5.82;;;2.15;;
53775;SDS011;44276;49.534;6.378;2023-08-21T07:05:11;6.22;;;1.80;;
53775;SDS011;44276;49.534;6.378;2023-08-21T07:07:40;6.60;;;1.63;;
53775;SDS011;44276;49.534;6.378;2023-08-21T07:10:09;24.05;;;2.97;;
53775;SDS011;44276;49.534;6.378;2023-08-21T07:12:37;14.02;;;3.65;;
53775;SDS011;44276;49.534;6.378;2023-08-21T07:15:06;6.20;;;2.05;;
53775;SDS011;44276;49.534;6.378;2023-08-21T07:17:37;4.90;;;2.42;;
53775;SDS011;44276;49.534;6.378;2023-08-21T07:20:06;6.70;;;1.80;;
53775;SDS011;44276;49.534;6.378;2023-08-21T07:22:35;4.95;;;1.92;;
53775;SDS011;44276;49.534;6.378;2023-08-21T07:25:04;7.50;;;1.85;;
53775;SDS011;44276;49.534;6.378;2023-08-21T07:27:33;5.00;;;1.70;;
53775;SDS011;44276;49.534;6.378;2023-08-21T07:30:01;6.10;;;1.92;;
53775;SDS011;44276;49.534;6.378;2023-08-21T07:32:31;3.00;;;1.92;;
53775;SDS011;44276;49.534;6.378;2023-08-21T07:35:01;7.55;;;2.28;;
53775;SDS011;44276;49.534;6.378;2023-08-21T07:37:29;5.70;;;2.20;;
53775;SDS011;44276;49.534;6.378;2023-08-21T07:39:57;8.48;;;1.95;;
53775;SDS011;44276;49.534;6.378;2023-08-21T07:42:25;4.47;;;1.63;;
53775;SDS011;44276;49.534;6.378;2023-08-21T07:44:53;5.75;;;1.65;;
53775;SDS011;44276;49.534;6.378;2023-08-21T07:47:21;4.80;;;1.88;;
53775;SDS011;44276;49.534;6.378;2023-08-21T07:49:49;10.10;;;1.60;;
53775;SDS011;44276;49.534;6.378;2023-08-21T07:52:19;3.60;;;1.80;;
53775;SDS011;44276;49.534;6.378;2023-08-21T07:54:50;2.65;;;1.92;;
53775;SDS011;44276;49.534;6.378;2023-08-21T07:57:19;3.90;;;1.83;;
53775;SDS011;44276;49.534;6.378;2023-08-21T07:59:47;3.78;;;1.80;;
53775;SDS011;44276;49.534;6.378;2023-08-21T08:02:16;5.78;;;2.53;;
53775;SDS011;44276;49.534;6.378;2023-08-21T08:04:44;4.25;;;2.22;;
53775;SDS011;44276;49.534;6.378;2023-08-21T08:07:13;3.63;;;1.48;;
53775;SDS011;44276;49.534;6.378;2023-08-21T08:09:43;4.80;;;2.20;;
53775;SDS011;44276;49.534;6.378;2023-08-21T08:12:11;6.47;;;2.17;;
53775;SDS011;44276;49.534;6.378;2023-08-21T08:14:39;5.10;;;2.35;;
53775;SDS011;44276;49.534;6.378;2023-08-21T08:17:07;7.10;;;2.80;;
53775;SDS011;44276;49.534;6.378;2023-08-21T08:19:35;4.45;;;1.52;;
53775;SDS011;44276;49.534;6.378;2023-08-21T08:22:04;4.97;;;1.75;;
53775;SDS011;44276;49.534;6.378;2023-08-21T08:24:32;6.60;;;2.05;;
53775;SDS011;44276;49.534;6.378;2023-08-21T08:27:01;5.35;;;2.10;;
53775;SDS011;44276;49.534;6.378;2023-08-21T08:29:30;4.70;;;1.70;;
53775;SDS011;44276;49.534;6.378;2023-08-21T08:31:58;2.28;;;2.03;;
53775;SDS011;44276;49.534;6.378;2023-08-21T08:34:26;7.20;;;2.58;;
53775;SDS011;44276;49.534;6.378;2023-08-21T08:36:54;6.32;;;1.70;;
53775;SDS011;44276;49.534;6.378;2023-08-21T08:39:23;2.55;;;1.67;;
53775;SDS011;44276;49.534;6.378;2023-08-21T08:41:54;6.97;;;1.95;;
53775;SDS011;44276;49.534;6.378;2023-08-21T08:44:31;2.30;;;1.80;;
53775;SDS011;44276;49.534;6.378;2023-08-21T08:47:03;3.20;;;1.55;;
53775;SDS011;44276;49.534;6.378;2023-08-21T08:49:32;2.92;;;1.92;;
53775;SDS011;44276;49.534;6.378;2023-08-21T08:52:01;4.25;;;1.88;;
53775;SDS011;44276;49.534;6.378;2023-08-21T08:54:29;3.67;;;1.98;;
53775;SDS011;44276;49.534;6.378;2023-08-21T08:56:59;10.80;;;2.25;;
53775;SDS011;44276;49.534;6.378;2023-08-21T08:59:30;4.28;;;2.38;;
53775;SDS011;44276;49.534;6.378;2023-08-21T09:02:00;3.63;;;1.88;;
53775;SDS011;44276;49.534;6.378;2023-08-21T09:04:28;3.45;;;1.80;;
53775;SDS011;44276;49.534;6.378;2023-08-21T09:07:05;5.00;;;2.22;;
53775;SDS011;44276;49.534;6.378;2023-08-21T09:09:37;6.18;;;2.30;;
53775;SDS011;44276;49.534;6.378;2023-08-21T09:12:09;4.80;;;2.30;;
53775;SDS011;44276;49.534;6.378;2023-08-21T09:14:40;3.38;;;1.70;;
53775;SDS011;44276;49.534;6.378;2023-08-21T09:17:10;5.38;;;2.28;;
53775;SDS011;44276;49.534;6.378;2023-08-21T09:19:39;2.55;;;1.80;;
53775;SDS011;44276;49.534;6.378;2023-08-21T09:22:10;5.10;;;1.40;;
53775;SDS011;44276;49.534;6.378;2023-08-21T09:24:59;2.13;;;1.50;;
53775;SDS011;44276;49.534;6.378;2023-08-21T09:27:33;3.90;;;2.05;;
53775;SDS011;44276;49.534;6.378;2023-08-21T09:30:05;2.25;;;1.77;;
53775;SDS011;44276;49.534;6.378;2023-08-21T09:32:51;4.35;;;1.73;;
53775;SDS011;44276;49.534;6.378;2023-08-21T09:35:22;6.07;;;1.52;;
53775;SDS011;44276;49.534;6.378;2023-08-21T09:37:52;8.18;;;2.25;;
53775;SDS011;44276;49.534;6.378;2023-08-21T09:40:21;4.75;;;1.77;;
53775;SDS011;44276;49.534;6.378;2023-08-21T09:42:51;2.22;;;1.70;;
53775;SDS011;44276;49.534;6.378;2023-08-21T09:45:22;2.88;;;1.50;;
53775;SDS011;44276;49.534;6.378;2023-08-21T09:47:52;4.28;;;1.48;;
53775;SDS011;44276;49.534;6.378;2023-08-21T09:50:20;5.57;;;2.08;;
53775;SDS011;44276;49.534;6.378;2023-08-21T09:52:49;7.07;;;1.60;;
53775;SDS011;44276;49.534;6.378;2023-08-21T09:55:19;2.85;;;1.67;;
53775;SDS011;44276;49.534;6.378;2023-08-21T09:57:49;5.90;;;2.00;;
53775;SDS011;44276;49.534;6.378;2023-08-21T10:00:27;2.53;;;1.75;;
53775;SDS011;44276;49.534;6.378;2023-08-21T10:02:59;3.17;;;1.80;;
53775;SDS011;44276;49.534;6.378;2023-08-21T10:05:31;12.00;;;1.90;;
53775;SDS011;44276;49.534;6.378;2023-08-21T10:08:03;4.00;;;1.65;;
53775;SDS011;44276;49.534;6.378;2023-08-21T10:10:34;2.50;;;1.77;;
53775;SDS011;44276;49.534;6.378;2023-08-21T10:13:05;2.33;;;1.42;;
53775;SDS011;44276;49.534;6.378;2023-08-21T10:15:37;3.60;;;1.58;;
53775;SDS011;44276;49.534;6.378;2023-08-21T10:18:19;6.13;;;1.75;;
53775;SDS011;44276;49.534;6.378;2023-08-21T10:20:50;3.28;;;1.77;;
53775;SDS011;44276;49.534;6.378;2023-08-21T10:23:26;2.80;;;1.52;;
53775;SDS011;44276;49.534;6.378;2023-08-21T10:25:55;7.65;;;1.50;;
53775;SDS011;44276;49.534;6.378;2023-08-21T10:28:41;3.72;;;1.60;;
53775;SDS011;44276;49.534;6.378;2023-08-21T10:31:27;2.28;;;1.40;;
53775;SDS011;44276;49.534;6.378;2023-08-21T10:33:59;6.90;;;1.33;;
53775;SDS011;44276;49.534;6.378;2023-08-21T10:36:36;3.80;;;1.52;;
53775;SDS011;44276;49.534;6.378;2023-08-21T10:39:12;3.20;;;1.45;;
53775;SDS011;44276;49.534;6.378;2023-08-21T10:41:52;1.77;;;0.82;;
53775;SDS011;44276;49.534;6.378;2023-08-21T10:47:30;2.85;;;1.10;;
53775;SDS011;44276;49.534;6.378;2023-08-21T10:50:02;3.95;;;1.05;;
53775;SDS011;44276;49.534;6.378;2023-08-21T10:52:34;3.55;;;1.23;;
53775;SDS011;44276;49.534;6.378;2023-08-21T10:55:06;2.93;;;1.13;;
53775;SDS011;44276;49.534;6.378;2023-08-21T10:57:36;2.25;;;1.30;;
53775;SDS011;44276;49.534;6.378;2023-08-21T11:00:07;1.33;;;1.02;;
53775;SDS011;44276;49.534;6.378;2023-08-21T11:02:40;3.55;;;1.20;;
53775;SDS011;44276;49.534;6.378;2023-08-21T11:05:10;1.58;;;1.08;;
53775;SDS011;44276;49.534;6.378;2023-08-21T11:07:41;2.85;;;1.25;;
53775;SDS011;44276;49.534;6.378;2023-08-21T11:10:11;1.13;;;0.82;;
53775;SDS011;44276;49.534;6.378;2023-08-21T11:12:48;1.35;;;0.88;;
53775;SDS011;44276;49.534;6.378;2023-08-21T11:15:18;3.70;;;1.48;;
53775;SDS011;44276;49.534;6.378;2023-08-21T11:17:57;4.82;;;1.27;;
53775;SDS011;44276;49.534;6.378;2023-08-21T11:20:27;2.78;;;1.20;;
53775;SDS011;44276;49.534;6.378;2023-08-21T11:22:57;1.10;;;0.98;;
53775;SDS011;44276;49.534;6.378;2023-08-21T11:25:26;2.05;;;1.40;;
53775;SDS011;44276;49.534;6.378;2023-08-21T11:27:55;3.15;;;1.83;;
53775;SDS011;44276;49.534;6.378;2023-08-21T11:30:23;2.60;;;1.25;;
53775;SDS011;44276;49.534;6.378;2023-08-21T11:33:05;2.35;;;1.40;;
53775;SDS011;44276;49.534;6.378;2023-08-21T11:35:34;4.32;;;1.25;;
53775;SDS011;44276;49.534;6.378;2023-08-21T11:38:03;3.05;;;1.13;;
53775;SDS011;44276;49.534;6.378;2023-08-21T11:40:35;1.77;;;1.10;;
53775;SDS011;44276;49.534;6.378;2023-08-21T11:43:04;6.07;;;1.38;;
53775;SDS011;44276;49.534;6.378;2023-08-21T11:45:34;1.02;;;0.90;;
53775;SDS011;44276;49.534;6.378;2023-08-21T11:48:23;2.85;;;1.13;;
53775;SDS011;44276;49.534;6.378;2023-08-21T11:50:52;4.00;;;1.88;;
53775;SDS011;44276;49.534;6.378;2023-08-21T11:53:29;3.28;;;1.10;;
53775;SDS011;44276;49.534;6.378;2023-08-21T11:56:03;3.35;;;0.90;;
53775;SDS011;44276;49.534;6.378;2023-08-21T11:58:37;2.40;;;1.42;;
53775;SDS011;44276;49.534;6.378;2023-08-21T12:01:06;2.67;;;1.17;;
53775;SDS011;44276;49.534;6.378;2023-08-21T12:03:37;3.15;;;1.70;;
53775;SDS011;44276;49.534;6.378;2023-08-21T12:06:07;2.80;;;1.52;;
53775;SDS011;44276;49.534;6.378;2023-08-21T12:08:37;4.38;;;1.30;;
53775;SDS011;44276;49.534;6.378;2023-08-21T12:11:06;2.47;;;1.33;;
53775;SDS011;44276;49.534;6.378;2023-08-21T12:13:35;2.45;;;1.35;;
53775;SDS011;44276;49.534;6.378;2023-08-21T12:16:03;3.20;;;1.67;;
53775;SDS011;44276;49.534;6.378;2023-08-21T12:18:32;3.05;;;1.70;;
53775;SDS011;44276;49.534;6.378;2023-08-21T12:21:01;6.85;;;1.77;;
53775;SDS011;44276;49.534;6.378;2023-08-21T12:23:29;4.22;;;0.98;;
53775;SDS011;44276;49.534;6.378;2023-08-21T12:25:57;2.70;;;1.40;;
53775;SDS011;44276;49.534;6.378;2023-08-21T12:28:27;2.95;;;1.75;;
53775;SDS011;44276;49.534;6.378;2023-08-21T12:30:56;3.05;;;1.15;;
53775;SDS011;44276;49.534;6.378;2023-08-21T12:33:24;2.70;;;1.63;;
53775;SDS011;44276;49.534;6.378;2023-08-21T12:35:53;3.30;;;1.40;;
53775;SDS011;44276;49.534;6.378;2023-08-21T12:38:22;4.25;;;1.90;;
53775;SDS011;44276;49.534;6.378;2023-08-21T12:40:55;4.03;;;1.42;;
53775;SDS011;44276;49.534;6.378;2023-08-21T12:43:23;2.25;;;1.20;;
53775;SDS011;44276;49.534;6.378;2023-08-21T12:45:51;5.88;;;2.00;;
53775;SDS011;44276;49.534;6.378;2023-08-21T12:48:20;3.80;;;1.42;;
53775;SDS011;44276;49.534;6.378;2023-08-21T12:50:48;4.55;;;1.00;;
53775;SDS011;44276;49.534;6.378;2023-08-21T12:53:16;3.70;;;1.35;;
53775;SDS011;44276;49.534;6.378;2023-08-21T12:55:45;1.92;;;1.30;;
53775;SDS011;44276;49.534;6.378;2023-08-21T12:58:14;3.13;;;1.23;;
53775;SDS011;44276;49.534;6.378;2023-08-21T13:00:42;3.20;;;1.20;;
53775;SDS011;44276;49.534;6.378;2023-08-21T13:03:10;1.58;;;1.17;;
53775;SDS011;44276;49.534;6.378;2023-08-21T13:05:38;4.50;;;1.20;;
53775;SDS011;44276;49.534;6.378;2023-08-21T13:08:07;2.28;;;1.23;;
53775;SDS011;44276;49.534;6.378;2023-08-21T13:10:35;1.67;;;0.88;;
53775;SDS011;44276;49.534;6.378;2023-08-21T13:13:04;2.15;;;0.90;;
53775;SDS011;44276;49.534;6.378;2023-08-21T13:15:32;2.15;;;0.93;;
53775;SDS011;44276;49.534;6.378;2023-08-21T13:18:01;3.20;;;1.10;;
53775;SDS011;44276;49.534;6.378;2023-08-21T13:20:29;2.25;;;1.10;;
53775;SDS011;44276;49.534;6.378;2023-08-21T13:22:57;2.15;;;1.20;;
53775;SDS011;44276;49.534;6.378;2023-08-21T13:25:25;2.15;;;0.90;;
53775;SDS011;44276;49.534;6.378;2023-08-21T13:27:55;5.63;;;1.27;;
53775;SDS011;44276;49.534;6.378;2023-08-21T13:30:25;2.70;;;1.30;;
53775;SDS011;44276;49.534;6.378;2023-08-21T13:32:53;2.75;;;1.25;;
53775;SDS011;44276;49.534;6.378;2023-08-21T13:35:21;4.35;;;1.05;;
53775;SDS011;44276;49.534;6.378;2023-08-21T13:37:49;1.83;;;1.23;;
53775;SDS011;44276;49.534;6.378;2023-08-21T13:40:18;2.45;;;1.08;;
53775;SDS011;44276;49.534;6.378;2023-08-21T13:42:47;1.80;;;1.10;;
53775;SDS011;44276;49.534;6.378;2023-08-21T13:45:16;2.08;;;0.90;;
53775;SDS011;44276;49.534;6.378;2023-08-21T13:47:47;1.95;;;1.27;;
53775;SDS011;44276;49.534;6.378;2023-08-21T13:50:17;1.80;;;0.98;;
53775;SDS011;44276;49.534;6.378;2023-08-21T13:52:46;1.92;;;0.90;;
53775;SDS011;44276;49.534;6.378;2023-08-21T13:55:15;3.58;;;1.55;;
53775;SDS011;44276;49.534;6.378;2023-08-21T13:57:44;3.67;;;1.20;;
53775;SDS011;44276;49.534;6.378;2023-08-21T14:00:12;8.65;;;2.30;;
53775;SDS011;44276;49.534;6.378;2023-08-21T14:02:44;2.67;;;1.35;;
53775;SDS011;44276;49.534;6.378;2023-08-21T14:05:14;5.53;;;1.33;;
53775;SDS011;44276;49.534;6.378;2023-08-21T14:07:42;2.15;;;1.38;;
53775;SDS011;44276;49.534;6.378;2023-08-21T14:10:11;3.20;;;1.00;;
53775;SDS011;44276;49.534;6.378;2023-08-21T14:12:40;3.08;;;1.60;;
53775;SDS011;44276;49.534;6.378;2023-08-21T14:15:09;2.72;;;1.00;;
53775;SDS011;44276;49.534;6.378;2023-08-21T14:17:38;2.53;;;1.30;;
53775;SDS011;44276;49.534;6.378;2023-08-21T14:20:09;3.50;;;0.98;;
53775;SDS011;44276;49.534;6.378;2023-08-21T14:22:39;2.72;;;1.33;;
53775;SDS011;44276;49.534;6.378;2023-08-21T14:25:07;1.42;;;1.27;;
53775;SDS011;44276;49.534;6.378;2023-08-21T14:27:36;2.25;;;1.15;;
53775;SDS011;44276;49.534;6.378;2023-08-21T14:30:05;2.00;;;0.90;;
53775;SDS011;44276;49.534;6.378;2023-08-21T14:32:35;1.35;;;1.00;;
53775;SDS011;44276;49.534;6.378;2023-08-21T14:35:04;5.22;;;1.38;;
53775;SDS011;44276;49.534;6.378;2023-08-21T14:37:36;2.08;;;1.13;;
53775;SDS011;44276;49.534;6.378;2023-08-21T14:40:06;1.73;;;1.30;;
53775;SDS011;44276;49.534;6.378;2023-08-21T14:42:36;4.88;;;1.30;;
53775;SDS011;44276;49.534;6.378;2023-08-21T14:45:06;2.78;;;0.82;;
53775;SDS011;44276;49.534;6.378;2023-08-21T14:47:35;3.03;;;1.13;;
53775;SDS011;44276;49.534;6.378;2023-08-21T14:50:04;2.15;;;1.25;;
53775;SDS011;44276;49.534;6.378;2023-08-21T14:52:35;2.97;;;1.20;;
53775;SDS011;44276;49.534;6.378;2023-08-21T14:55:04;6.65;;;1.20;;
53775;SDS011;44276;49.534;6.378;2023-08-21T14:57:32;2.40;;;1.15;;
53775;SDS011;44276;49.534;6.378;2023-08-21T15:00:01;3.63;;;1.10;;
53775;SDS011;44276;49.534;6.378;2023-08-21T15:02:30;3.08;;;1.17;;
53775;SDS011;44276;49.534;6.378;2023-08-21T15:04:58;4.47;;;1.13;;